createdAt,value
2023-05-08T00:02:13.083Z,99.55
2023-05-08T00:04:30.463Z,99.67
2023-05-08T00:06:47.788Z,100.00
2023-05-08T00:09:05.036Z,99.84
2023-05-08T00:11:21.991Z,100.00
2023-05-08T00:13:39.227Z,99.77
2023-05-08T00:15:56.540Z,99.30
2023-05-08T00:18:13.775Z,99.41
2023-05-08T00:20:31.979Z,100.00
2023-05-08T00:22:49.252Z,100.00
2023-05-08T00:25:06.558Z,100.00
2023-05-08T00:27:23.512Z,100.00
2023-05-08T00:29:40.861Z,99.58
2023-05-08T00:31:58.367Z,99.70
2023-05-08T00:34:15.666Z,100.00
2023-05-08T00:36:32.933Z,99.66
2023-05-08T00:38:50.168Z,100.00
2023-05-08T00:41:07.779Z,100.00
2023-05-08T00:43:25.946Z,100.00
2023-05-08T00:45:43.250Z,99.67
2023-05-08T00:48:01.613Z,100.00
2023-05-08T00:50:18.972Z,99.74
2023-05-08T00:52:36.257Z,100.00
2023-05-08T00:54:53.518Z,100.00
2023-05-08T00:57:11.797Z,99.61
2023-05-08T00:59:28.692Z,100.00
2023-05-08T01:01:46.024Z,100.00
2023-05-08T01:04:03.258Z,100.00
2023-05-08T01:06:20.856Z,100.00
2023-05-08T01:08:38.160Z,100.00
2023-05-08T01:10:55.474Z,100.00
2023-05-08T01:13:13.263Z,100.00
2023-05-08T01:15:30.716Z,100.00
2023-05-08T01:17:48.008Z,100.00
2023-05-08T01:20:05.394Z,100.00
2023-05-08T01:22:23.181Z,100.00
2023-05-08T01:24:40.504Z,100.00
2023-05-08T01:26:57.509Z,99.93
2023-05-08T01:29:15.587Z,100.00
2023-05-08T01:31:32.969Z,100.00
2023-05-08T01:33:50.745Z,100.00
2023-05-08T01:36:08.037Z,100.00
2023-05-08T01:38:25.301Z,99.98
2023-05-08T01:40:42.515Z,99.88
2023-05-08T01:42:59.825Z,100.00
2023-05-08T01:45:17.086Z,100.00
2023-05-08T01:47:34.867Z,100.00
2023-05-08T01:49:52.134Z,100.00
2023-05-08T01:52:10.688Z,100.00
2023-05-08T01:54:27.985Z,100.00
2023-05-08T01:56:45.262Z,100.00
2023-05-08T01:59:02.325Z,100.00
2023-05-08T02:01:20.111Z,100.00
2023-05-08T02:03:37.423Z,100.00
2023-05-08T02:05:54.837Z,100.00
2023-05-08T02:08:12.238Z,100.00
2023-05-08T02:10:29.097Z,100.00
2023-05-08T02:12:46.430Z,100.00
2023-05-08T02:15:03.772Z,100.00
2023-05-08T02:17:21.122Z,100.00
2023-05-08T02:19:38.418Z,100.00
2023-05-08T02:21:56.673Z,100.00
2023-05-08T02:24:13.593Z,100.00
2023-05-08T02:26:30.829Z,100.00
2023-05-08T02:28:47.890Z,100.00
2023-05-08T02:31:04.859Z,100.00
2023-05-08T02:33:22.243Z,100.00
2023-05-08T02:35:39.470Z,100.00
2023-05-08T02:37:56.756Z,100.00
2023-05-08T02:40:14.082Z,100.00
2023-05-08T02:42:31.637Z,100.00
2023-05-08T02:44:49.211Z,100.00
2023-05-08T02:47:07.228Z,100.00
2023-05-08T02:49:24.781Z,100.00
2023-05-08T02:51:43.149Z,100.00
2023-05-08T02:54:00.410Z,100.00
2023-05-08T02:56:17.300Z,100.00
2023-05-08T02:58:34.237Z,100.00
2023-05-08T03:00:51.563Z,100.00
2023-05-08T03:03:08.552Z,100.00
2023-05-08T03:05:26.197Z,100.00
2023-05-08T03:07:44.466Z,100.00
2023-05-08T03:10:01.448Z,100.00
2023-05-08T03:12:20.032Z,100.00
2023-05-08T03:14:37.349Z,100.00
2023-05-08T03:16:54.654Z,100.00
2023-05-08T03:19:11.989Z,100.00
2023-05-08T03:21:29.275Z,100.00
2023-05-08T03:23:47.544Z,100.00
2023-05-08T03:26:04.856Z,100.00
2023-05-08T03:28:21.866Z,100.00
2023-05-08T03:30:38.766Z,100.00
2023-05-08T03:32:56.387Z,100.00
2023-05-08T03:35:13.649Z,100.00
2023-05-08T03:37:31.592Z,100.00
2023-05-08T03:39:48.834Z,100.00
2023-05-08T03:42:06.088Z,100.00
2023-05-08T03:44:24.004Z,100.00
2023-05-08T03:46:41.806Z,100.00
2023-05-08T03:49:00.172Z,100.00
2023-05-08T03:51:17.121Z,100.00
2023-05-08T03:53:34.426Z,100.00
2023-05-08T03:55:51.726Z,100.00
2023-05-08T03:58:09.369Z,100.00
2023-05-08T04:00:26.465Z,100.00
2023-05-08T04:02:43.758Z,100.00
2023-05-08T04:05:01.083Z,100.00
2023-05-08T04:07:18.109Z,100.00
2023-05-08T04:09:36.358Z,100.00
2023-05-08T04:11:53.650Z,100.00
2023-05-08T04:14:10.918Z,100.00
2023-05-08T04:16:28.224Z,100.00
2023-05-08T04:18:45.494Z,100.00
2023-05-08T04:21:02.736Z,100.00
2023-05-08T04:23:20.066Z,100.00
2023-05-08T04:25:38.716Z,100.00
2023-05-08T04:27:56.399Z,100.00
2023-05-08T04:30:14.068Z,100.00
2023-05-08T04:32:31.197Z,100.00
2023-05-08T04:34:48.474Z,100.00
2023-05-08T04:37:06.108Z,100.00
2023-05-08T04:39:23.370Z,100.00
2023-05-08T04:41:40.482Z,100.00
2023-05-08T04:43:57.385Z,100.00
2023-05-08T04:46:15.811Z,100.00
2023-05-08T04:48:33.142Z,100.00
2023-05-08T04:50:50.528Z,100.00
2023-05-08T04:53:07.830Z,100.00
2023-05-08T04:55:25.570Z,100.00
2023-05-08T04:57:42.917Z,100.00
2023-05-08T05:00:00.224Z,100.00
2023-05-08T05:02:20.018Z,100.00
2023-05-08T05:04:37.011Z,100.00
2023-05-08T05:06:56.786Z,100.00
2023-05-08T05:09:13.779Z,100.00
2023-05-08T05:11:31.524Z,100.00
2023-05-08T05:13:48.717Z,100.00
2023-05-08T05:16:06.049Z,100.00
2023-05-08T05:18:24.399Z,100.00
2023-05-08T05:20:42.840Z,100.00
2023-05-08T05:23:01.000Z,100.00
2023-05-08T05:25:20.463Z,100.00
2023-05-08T05:27:37.881Z,100.00
2023-05-08T05:29:55.106Z,100.00
2023-05-08T05:32:13.400Z,100.00
2023-05-08T05:34:30.738Z,100.00
2023-05-08T05:36:48.037Z,100.00
2023-05-08T05:39:11.018Z,100.00
2023-05-08T05:41:28.016Z,100.00
2023-05-08T05:43:46.268Z,100.00
2023-05-08T05:46:04.175Z,100.00
2023-05-08T05:48:23.866Z,100.00
2023-05-08T05:50:41.153Z,100.00
2023-05-08T05:52:58.945Z,100.00
2023-05-08T05:55:16.311Z,99.52
2023-05-08T05:57:36.091Z,100.00
2023-05-08T05:59:54.833Z,97.89
2023-05-08T06:02:12.989Z,97.81
2023-05-08T06:04:30.202Z,97.66
2023-05-08T06:06:48.707Z,96.83
2023-05-08T06:09:07.080Z,97.41
2023-05-08T06:11:24.374Z,97.49
2023-05-08T06:13:41.778Z,98.30
2023-05-08T06:15:59.042Z,97.00
2023-05-08T06:18:17.258Z,96.68
2023-05-08T06:20:34.964Z,97.28
2023-05-08T06:22:52.349Z,97.02
2023-05-08T06:25:10.725Z,96.40
2023-05-08T06:27:28.114Z,95.75
2023-05-08T06:29:45.660Z,96.11
2023-05-08T06:32:02.910Z,95.00
2023-05-08T06:34:19.835Z,95.06
2023-05-08T06:36:38.123Z,94.50
2023-05-08T06:38:55.053Z,93.07
2023-05-08T06:41:14.548Z,94.36
2023-05-08T06:43:32.947Z,93.77
2023-05-08T06:45:50.542Z,93.91
2023-05-08T06:48:07.982Z,94.02
2023-05-08T06:50:25.525Z,94.81
2023-05-08T06:52:42.854Z,93.70
2023-05-08T06:55:00.679Z,93.74
2023-05-08T06:57:17.974Z,94.31
2023-05-08T06:59:35.309Z,93.71
2023-05-08T07:01:52.892Z,92.69
2023-05-08T07:04:10.829Z,91.67
2023-05-08T07:06:28.462Z,91.73
2023-05-08T07:08:45.757Z,91.13
2023-05-08T07:11:02.821Z,92.31
2023-05-08T07:13:21.128Z,92.59
2023-05-08T07:15:38.411Z,91.93
2023-05-08T07:17:58.196Z,91.44
2023-05-08T07:20:15.460Z,90.28
2023-05-08T07:22:32.765Z,90.52
2023-05-08T07:24:50.082Z,91.09
2023-05-08T07:27:07.138Z,89.78
2023-05-08T07:29:24.173Z,90.00
2023-05-08T07:31:41.462Z,89.52
2023-05-08T07:33:58.846Z,88.95
2023-05-08T07:36:16.203Z,89.10
2023-05-08T07:38:33.516Z,89.98
2023-05-08T07:40:50.753Z,89.72
2023-05-08T07:43:08.569Z,90.96
2023-05-08T07:45:26.348Z,91.12
2023-05-08T07:47:43.341Z,91.61
2023-05-08T07:50:00.396Z,90.27
2023-05-08T07:52:18.030Z,90.71
2023-05-08T07:54:36.411Z,91.26
2023-05-08T07:56:53.502Z,91.45
2023-05-08T07:59:10.757Z,91.83
2023-05-08T08:01:28.028Z,91.65
2023-05-08T08:03:45.018Z,91.78
2023-05-08T08:06:01.941Z,92.12
2023-05-08T08:08:22.450Z,92.81
2023-05-08T08:10:39.768Z,93.07
2023-05-08T08:12:57.069Z,92.26
2023-05-08T08:15:14.680Z,91.66
2023-05-08T08:17:32.200Z,92.68
2023-05-08T08:19:49.468Z,92.72
2023-05-08T08:22:07.194Z,93.18
2023-05-08T08:24:24.072Z,92.53
2023-05-08T08:26:41.366Z,93.16
2023-05-08T08:28:58.681Z,93.14
2023-05-08T08:31:15.960Z,92.93
2023-05-08T08:33:33.213Z,91.86
2023-05-08T08:35:51.464Z,92.35
2023-05-08T08:38:08.782Z,91.67
2023-05-08T08:40:25.727Z,91.20
2023-05-08T08:42:43.429Z,91.45
2023-05-08T08:45:00.806Z,91.04
2023-05-08T08:47:18.126Z,91.37
2023-05-08T08:49:35.470Z,91.58
2023-05-08T08:51:52.798Z,91.51
2023-05-08T08:54:10.092Z,92.02
2023-05-08T08:56:27.428Z,91.83
2023-05-08T08:58:44.767Z,92.26
2023-05-08T09:01:02.637Z,92.50
2023-05-08T09:03:20.098Z,92.45
2023-05-08T09:05:37.475Z,91.65
2023-05-08T09:07:54.742Z,91.52
2023-05-08T09:10:13.046Z,91.93
2023-05-08T09:12:30.388Z,91.96
2023-05-08T09:14:47.705Z,91.44
2023-05-08T09:17:04.977Z,92.66
2023-05-08T09:19:24.955Z,92.51
2023-05-08T09:21:44.109Z,92.80
2023-05-08T09:24:01.422Z,92.49
2023-05-08T09:26:18.699Z,92.02
2023-05-08T09:28:35.934Z,91.92
2023-05-08T09:30:53.313Z,91.88
2023-05-08T09:33:10.696Z,92.19
2023-05-08T09:35:28.637Z,92.24
2023-05-08T09:37:45.929Z,91.72
2023-05-08T09:40:03.852Z,92.48
2023-05-08T09:42:21.060Z,91.90
2023-05-08T09:44:40.098Z,91.99
2023-05-08T09:46:57.155Z,92.09
2023-05-08T09:49:14.874Z,92.06
2023-05-08T09:51:31.851Z,92.82
2023-05-08T09:53:49.203Z,93.55
2023-05-08T09:56:08.178Z,93.69
2023-05-08T09:58:25.479Z,94.15
2023-05-08T10:00:42.831Z,94.80
2023-05-08T10:03:00.441Z,94.87
2023-05-08T10:05:17.529Z,94.94
2023-05-08T10:07:34.926Z,95.00
2023-05-08T10:09:52.478Z,94.58
2023-05-08T10:12:10.140Z,95.10
2023-05-08T10:14:27.503Z,94.38
2023-05-08T10:16:44.772Z,94.08
2023-05-08T10:19:01.739Z,94.18
2023-05-08T10:21:18.992Z,93.47
2023-05-08T10:23:36.199Z,93.61
2023-05-08T10:25:55.045Z,93.16
2023-05-08T10:28:12.352Z,93.21
2023-05-08T10:30:30.258Z,92.40
2023-05-08T10:32:47.583Z,92.60
2023-05-08T10:35:04.688Z,92.54
2023-05-08T10:37:22.018Z,92.33
2023-05-08T10:39:39.289Z,91.77
2023-05-08T10:41:56.548Z,91.81
2023-05-08T10:44:13.861Z,90.69
2023-05-08T10:46:31.184Z,89.88
2023-05-08T10:48:48.358Z,89.26
2023-05-08T10:51:06.197Z,90.35
2023-05-08T10:53:23.162Z,87.97
2023-05-08T10:55:40.561Z,86.88
2023-05-08T10:57:58.236Z,88.02
2023-05-08T11:00:15.747Z,88.95
2023-05-08T11:02:33.207Z,87.11
2023-05-08T11:04:51.532Z,88.10
2023-05-08T11:07:08.908Z,89.43
2023-05-08T11:09:27.356Z,89.28
2023-05-08T11:11:44.571Z,89.76
2023-05-08T11:14:02.713Z,88.74
2023-05-08T11:16:19.864Z,87.45
2023-05-08T11:18:48.473Z,84.38
2023-05-08T11:21:06.342Z,84.42
2023-05-08T11:23:23.639Z,85.70
2023-05-08T11:25:40.994Z,84.14
2023-05-08T11:27:58.435Z,83.79
2023-05-08T11:30:15.374Z,83.28
2023-05-08T11:32:32.696Z,82.45
2023-05-08T11:34:51.034Z,85.01
2023-05-08T11:37:08.298Z,84.24
2023-05-08T11:39:25.235Z,83.72
2023-05-08T11:41:43.665Z,83.18
2023-05-08T11:44:00.647Z,82.84
2023-05-08T11:46:17.978Z,82.55
2023-05-08T11:48:35.413Z,83.62
2023-05-08T11:50:52.947Z,82.43
2023-05-08T11:53:10.455Z,84.16
2023-05-08T11:55:27.764Z,83.39
2023-05-08T11:57:45.241Z,83.54
2023-05-08T12:00:02.997Z,83.70
2023-05-08T12:02:21.067Z,83.04
2023-05-08T12:04:39.309Z,80.76
2023-05-08T12:06:56.340Z,81.80
2023-05-08T12:09:13.613Z,82.85
2023-05-08T12:11:31.582Z,81.57
2023-05-08T12:13:48.526Z,81.33
2023-05-08T12:16:07.419Z,83.60
2023-05-08T12:18:25.091Z,82.18
2023-05-08T12:20:42.411Z,83.58
2023-05-08T12:22:59.719Z,82.32
2023-05-08T12:25:17.044Z,82.06
2023-05-08T12:27:34.764Z,80.75
2023-05-08T12:29:52.153Z,79.78
2023-05-08T12:32:09.772Z,82.02
2023-05-08T12:34:28.113Z,79.78
2023-05-08T12:36:45.079Z,79.37
2023-05-08T12:39:02.222Z,78.32
2023-05-08T12:41:19.128Z,80.34
2023-05-08T12:43:36.350Z,78.47
2023-05-08T12:45:54.652Z,76.60
2023-05-08T12:48:12.243Z,76.21
2023-05-08T12:50:29.285Z,75.29
2023-05-08T12:52:46.494Z,75.26
2023-05-08T12:55:03.755Z,76.59
2023-05-08T12:57:21.018Z,76.07
2023-05-08T12:59:38.314Z,77.62
2023-05-08T13:01:55.679Z,78.79
2023-05-08T13:04:13.060Z,78.18
2023-05-08T13:06:30.479Z,76.49
2023-05-08T13:08:48.761Z,79.76
2023-05-08T13:11:05.789Z,80.34
2023-05-08T13:13:22.939Z,78.49
2023-05-08T13:15:40.387Z,80.10
2023-05-08T13:18:00.249Z,80.76
2023-05-08T13:20:18.022Z,79.92
2023-05-08T13:22:36.278Z,78.94
2023-05-08T13:24:53.604Z,78.88
2023-05-08T13:27:10.745Z,79.25
2023-05-08T13:29:28.061Z,78.48
2023-05-08T13:31:45.417Z,78.19
2023-05-08T13:34:02.796Z,78.73
2023-05-08T13:36:20.044Z,78.27
2023-05-08T13:38:36.933Z,77.44
2023-05-08T13:40:54.365Z,78.94
2023-05-08T13:43:11.645Z,78.73
2023-05-08T13:45:28.973Z,77.93
2023-05-08T13:47:46.250Z,77.99
2023-05-08T13:50:03.505Z,76.15
2023-05-08T13:52:20.819Z,76.82
2023-05-08T13:54:38.188Z,76.83
2023-05-08T13:56:57.458Z,77.32
2023-05-08T13:59:14.748Z,76.46
2023-05-08T14:01:32.128Z,76.11
2023-05-08T14:03:50.214Z,76.52
2023-05-08T14:06:07.256Z,76.42
2023-05-08T14:08:24.472Z,77.04
2023-05-08T14:10:41.785Z,77.92
2023-05-08T14:13:00.731Z,76.94
2023-05-08T14:15:18.051Z,76.81
2023-05-08T14:17:35.174Z,77.74
2023-05-08T14:19:52.405Z,76.53
2023-05-08T14:22:09.377Z,75.41
2023-05-08T14:24:27.743Z,75.88
2023-05-08T14:26:45.047Z,73.04
2023-05-08T14:29:03.158Z,72.92
2023-05-08T14:31:20.488Z,74.25
2023-05-08T14:33:37.799Z,74.62
2023-05-08T14:35:54.698Z,72.57
2023-05-08T14:38:11.801Z,72.96
2023-05-08T14:40:29.108Z,73.44
2023-05-08T14:42:47.364Z,71.90
2023-05-08T14:45:04.581Z,73.41
2023-05-08T14:47:21.991Z,73.81
2023-05-08T14:49:40.282Z,75.39
2023-05-08T14:51:57.460Z,75.19
2023-05-08T14:54:16.946Z,75.74
2023-05-08T14:56:46.405Z,74.74
2023-05-08T14:59:04.949Z,74.40
2023-05-08T15:01:22.201Z,74.12
2023-05-08T15:03:39.888Z,74.77
2023-05-08T15:05:57.671Z,75.01
2023-05-08T15:08:14.940Z,73.98
2023-05-08T15:10:32.212Z,74.87
2023-05-08T15:12:49.219Z,74.21
2023-05-08T15:15:06.649Z,74.87
2023-05-08T15:17:24.857Z,74.91
2023-05-08T15:19:42.455Z,73.76
2023-05-08T15:21:59.821Z,75.18
2023-05-08T15:24:17.167Z,74.89
2023-05-08T15:26:34.335Z,74.42
2023-05-08T15:28:52.089Z,73.79
2023-05-08T15:31:09.332Z,73.20
2023-05-08T15:33:26.622Z,73.99
2023-05-08T15:35:45.246Z,74.06
2023-05-08T15:38:02.560Z,74.61
2023-05-08T15:40:19.533Z,74.72
2023-05-08T15:42:36.732Z,74.20
2023-05-08T15:44:55.121Z,74.74
2023-05-08T15:47:12.829Z,73.18
2023-05-08T15:49:29.863Z,73.50
2023-05-08T15:51:46.892Z,72.88
2023-05-08T15:54:07.440Z,73.48
2023-05-08T15:56:24.315Z,71.83
2023-05-08T15:58:42.764Z,73.10
2023-05-08T16:01:00.172Z,72.61
2023-05-08T16:03:17.313Z,71.45
2023-05-08T16:05:35.619Z,73.06
2023-05-08T16:07:53.851Z,72.83
2023-05-08T16:10:14.069Z,72.78
2023-05-08T16:12:31.011Z,73.95
2023-05-08T16:14:49.214Z,73.74
2023-05-08T16:17:08.453Z,74.64
2023-05-08T16:19:25.803Z,74.91
2023-05-08T16:21:43.035Z,74.98
2023-05-08T16:24:01.232Z,75.01
2023-05-08T16:26:19.535Z,75.95
2023-05-08T16:28:36.786Z,77.07
2023-05-08T16:30:54.136Z,77.58
2023-05-08T16:33:12.432Z,76.70
2023-05-08T16:35:29.839Z,78.82
2023-05-08T16:37:47.228Z,77.32
2023-05-08T16:40:05.537Z,77.63
2023-05-08T16:42:23.814Z,77.15
2023-05-08T16:44:41.107Z,77.14
2023-05-08T16:46:58.784Z,76.09
2023-05-08T16:49:17.041Z,75.98
2023-05-08T16:51:34.031Z,75.57
2023-05-08T16:53:51.079Z,74.53
2023-05-08T16:56:08.134Z,74.42
2023-05-08T16:58:25.437Z,73.99
2023-05-08T17:00:42.698Z,75.19
2023-05-08T17:03:00.007Z,75.15
2023-05-08T17:05:17.124Z,75.86
2023-05-08T17:07:34.422Z,76.13
2023-05-08T17:09:52.103Z,76.20
2023-05-08T17:12:09.461Z,77.61
2023-05-08T17:14:26.790Z,76.62
2023-05-08T17:16:43.749Z,77.78
2023-05-08T17:19:00.988Z,78.80
2023-05-08T17:21:18.271Z,77.80
2023-05-08T17:23:35.639Z,79.71
2023-05-08T17:25:52.680Z,79.91
2023-05-08T17:28:11.088Z,79.80
2023-05-08T17:30:29.377Z,81.13
2023-05-08T17:32:47.286Z,82.22
2023-05-08T17:35:04.624Z,80.03
2023-05-08T17:37:21.846Z,81.72
2023-05-08T17:39:40.053Z,82.54
2023-05-08T17:41:57.537Z,81.75
2023-05-08T17:44:14.546Z,83.45
2023-05-08T17:46:31.859Z,81.73
2023-05-08T17:48:49.103Z,84.34
2023-05-08T17:51:06.507Z,84.72
2023-05-08T17:53:23.533Z,85.07
2023-05-08T17:55:41.142Z,85.24
2023-05-08T17:57:58.037Z,84.35
2023-05-08T18:00:15.460Z,86.26
2023-05-08T18:02:33.952Z,84.34
2023-05-08T18:04:51.307Z,85.90
2023-05-08T18:07:08.546Z,86.54
2023-05-08T18:09:25.830Z,87.20
2023-05-08T18:11:44.110Z,85.71
2023-05-08T18:14:01.116Z,86.43
2023-05-08T18:16:18.213Z,87.25
2023-05-08T18:18:35.494Z,87.63
2023-05-08T18:20:53.871Z,87.43
2023-05-08T18:23:11.539Z,86.23
2023-05-08T18:25:29.744Z,88.54
2023-05-08T18:27:47.179Z,87.67
2023-05-08T18:30:04.403Z,87.72
2023-05-08T18:32:21.328Z,87.50
2023-05-08T18:34:38.286Z,87.31
2023-05-08T18:36:56.845Z,87.12
2023-05-08T18:39:15.323Z,88.62
2023-05-08T18:41:32.642Z,88.41
2023-05-08T18:43:49.884Z,88.14
2023-05-08T18:46:07.198Z,89.37
2023-05-08T18:48:24.449Z,89.20
2023-05-08T18:50:41.542Z,90.24
2023-05-08T18:52:58.464Z,88.99
2023-05-08T18:55:15.414Z,89.03
2023-05-08T18:57:32.600Z,89.68
2023-05-08T18:59:50.001Z,89.32
2023-05-08T19:02:06.949Z,89.53
2023-05-08T19:04:25.103Z,89.90
2023-05-08T19:06:42.342Z,89.20
2023-05-08T19:08:59.597Z,90.54
2023-05-08T19:11:16.899Z,90.70
2023-05-08T19:13:34.611Z,90.23
2023-05-08T19:15:52.902Z,90.63
2023-05-08T19:18:09.981Z,90.41
2023-05-08T19:20:27.315Z,90.03
2023-05-08T19:22:44.632Z,91.01
2023-05-08T19:25:02.360Z,90.47
2023-05-08T19:27:20.267Z,90.11
2023-05-08T19:29:37.556Z,90.60
2023-05-08T19:31:55.901Z,91.11
2023-05-08T19:34:13.216Z,91.00
2023-05-08T19:36:30.534Z,91.26
2023-05-08T19:38:47.761Z,91.33
2023-05-08T19:41:04.731Z,90.77
2023-05-08T19:43:21.759Z,91.19
2023-05-08T19:45:38.655Z,90.66
2023-05-08T19:47:55.589Z,91.20
2023-05-08T19:50:13.072Z,91.44
2023-05-08T19:52:30.523Z,91.72
2023-05-08T19:54:47.850Z,91.86
2023-05-08T19:57:04.782Z,92.52
2023-05-08T19:59:22.118Z,92.50
2023-05-08T20:01:39.450Z,92.78
2023-05-08T20:03:59.795Z,93.53
2023-05-08T20:06:17.545Z,92.93
2023-05-08T20:08:35.378Z,93.86
2023-05-08T20:10:52.702Z,94.02
2023-05-08T20:13:10.078Z,93.72
2023-05-08T20:15:27.456Z,94.20
2023-05-08T20:17:44.789Z,94.59
2023-05-08T20:20:02.250Z,94.82
2023-05-08T20:22:20.002Z,94.77
2023-05-08T20:24:37.313Z,94.81
2023-05-08T20:26:54.964Z,94.42
2023-05-08T20:29:12.278Z,95.02
2023-05-08T20:31:29.177Z,94.75
2023-05-08T20:33:46.467Z,95.48
2023-05-08T20:36:04.819Z,95.36
2023-05-08T20:38:21.777Z,96.36
2023-05-08T20:40:39.082Z,96.57
2023-05-08T20:42:57.364Z,96.35
2023-05-08T20:45:15.705Z,95.79
2023-05-08T20:47:33.405Z,95.94
2023-05-08T20:49:50.708Z,94.63
2023-05-08T20:52:08.346Z,95.14
2023-05-08T20:54:25.745Z,95.16
2023-05-08T20:56:43.029Z,95.53
2023-05-08T20:59:00.295Z,96.61
2023-05-08T21:01:19.786Z,95.67
2023-05-08T21:03:38.043Z,96.46
2023-05-08T21:05:55.697Z,95.72
2023-05-08T21:08:12.994Z,95.25
2023-05-08T21:10:30.295Z,95.65
2023-05-08T21:12:48.566Z,95.58
2023-05-08T21:15:05.845Z,95.50
2023-05-08T21:17:24.071Z,96.61
2023-05-08T21:19:41.350Z,96.38
2023-05-08T21:21:59.690Z,95.41
2023-05-08T21:24:16.985Z,95.62
2023-05-08T21:26:34.340Z,95.47
2023-05-08T21:28:51.575Z,95.46
2023-05-08T21:31:08.962Z,95.72
2023-05-08T21:33:25.944Z,95.32
2023-05-08T21:35:43.176Z,95.74
2023-05-08T21:38:00.153Z,95.51
2023-05-08T21:40:17.404Z,95.45
2023-05-08T21:42:34.739Z,95.84
2023-05-08T21:44:51.694Z,95.60
2023-05-08T21:47:09.730Z,95.73
2023-05-08T21:49:27.008Z,95.98
2023-05-08T21:51:43.900Z,96.81
2023-05-08T21:54:01.477Z,96.49
2023-05-08T21:56:18.699Z,96.18
2023-05-08T21:58:36.021Z,96.90
2023-05-08T22:00:53.260Z,95.84
2023-05-08T22:03:10.624Z,96.29
2023-05-08T22:05:28.012Z,95.35
2023-05-08T22:07:45.330Z,95.91
2023-05-08T22:10:02.601Z,95.86
2023-05-08T22:12:20.156Z,96.03
2023-05-08T22:14:38.412Z,95.64
2023-05-08T22:16:55.733Z,95.88
2023-05-08T22:19:13.074Z,96.53
2023-05-08T22:21:30.362Z,96.01
2023-05-08T22:23:47.991Z,97.39
2023-05-08T22:26:05.249Z,96.08
2023-05-08T22:28:22.284Z,96.46
2023-05-08T22:30:40.596Z,96.64
2023-05-08T22:32:58.030Z,96.52
2023-05-08T22:35:15.688Z,97.31
2023-05-08T22:37:32.803Z,96.18
2023-05-08T22:39:49.826Z,96.72
2023-05-08T22:42:06.772Z,96.80
2023-05-08T22:44:24.099Z,97.39
2023-05-08T22:46:41.442Z,96.77
2023-05-08T22:48:58.752Z,97.48
2023-05-08T22:51:17.042Z,97.37
2023-05-08T22:53:33.976Z,97.25
2023-05-08T22:55:51.242Z,96.76
2023-05-08T22:58:08.563Z,97.39
2023-05-08T23:00:25.879Z,97.48
2023-05-08T23:02:44.349Z,96.53
2023-05-08T23:05:02.161Z,97.96
2023-05-08T23:07:19.915Z,97.79
2023-05-08T23:09:37.639Z,96.77
2023-05-08T23:11:55.554Z,98.17
2023-05-08T23:14:12.873Z,98.01
2023-05-08T23:16:30.194Z,98.29
2023-05-08T23:18:47.853Z,97.06
2023-05-08T23:21:05.173Z,98.04
2023-05-08T23:23:22.512Z,97.51
2023-05-08T23:25:40.196Z,97.30
2023-05-08T23:27:57.488Z,97.60
2023-05-08T23:30:15.065Z,97.46
2023-05-08T23:32:32.486Z,97.17
2023-05-08T23:34:49.392Z,98.61
2023-05-08T23:37:06.618Z,98.51
2023-05-08T23:39:23.974Z,98.70
2023-05-08T23:41:41.297Z,98.93
2023-05-08T23:43:58.324Z,98.58
2023-05-08T23:46:15.694Z,99.07
2023-05-08T23:48:35.196Z,98.68
2023-05-08T23:50:52.540Z,98.31
2023-05-08T23:53:10.779Z,97.74
2023-05-08T23:55:27.971Z,97.49
2023-05-08T23:57:45.669Z,98.44
